Time;durP1;ratioP1;P1;durP2;ratioP2;P2;SDS_P1;SDS_P2;PMS_P1;PMS_P2;Temp;Humidity;BMP_temperature;BMP_pressure;BME280_temperature;BME280_humidity;BME280_pressure;Samples;Min_cycle;Max_cycle;Signal;HPM_P1;HPM_P2
2020/12/18 00:01:09;;;;;;;1.17;0.63;;;;;;;6.82;100.00;101790.56;5056039;28;20449;-65
2020/12/18 00:03:36;;;;;;;1.17;0.80;;;;;;;6.79;100.00;101793.75;5055266;28;20512;-64
2020/12/18 00:06:02;;;;;;;1.47;1.37;;;;;;;6.75;100.00;101786.41;5055263;28;20464;-65
2020/12/18 00:08:28;;;;;;;0.50;0.47;;;;;;;6.67;100.00;101792.19;5055053;28;20482;-65
2020/12/18 00:10:54;;;;;;;1.47;0.73;;;;;;;6.63;100.00;101796.44;5055112;28;20474;-64
2020/12/18 00:13:21;;;;;;;4.00;1.17;;;;;;;6.53;100.00;101792.53;5054989;28;20445;-65
2020/12/18 00:15:47;;;;;;;1.00;0.90;;;;;;;6.46;100.00;101791.88;5054491;28;21184;-64
2020/12/18 00:18:14;;;;;;;0.90;0.80;;;;;;;6.40;100.00;101800.91;5054956;28;20446;-65
2020/12/18 00:20:40;;;;;;;1.43;0.63;;;;;;;6.33;100.00;101800.28;5054336;28;20493;-65
2020/12/18 00:23:06;;;;;;;0.70;0.60;;;;;;;6.27;100.00;101793.16;5054785;28;20532;-64
2020/12/18 00:25:32;;;;;;;1.07;0.97;;;;;;;6.27;100.00;101799.34;5055465;28;20826;-64
2020/12/18 00:27:58;;;;;;;1.63;1.53;;;;;;;6.29;100.00;101801.81;5054663;28;20446;-65
2020/12/18 00:30:25;;;;;;;2.40;2.23;;;;;;;6.18;100.00;101806.16;5054871;28;20477;-65
2020/12/18 00:32:51;;;;;;;1.63;1.53;;;;;;;6.16;100.00;101808.31;5053870;28;20965;-64
2020/12/18 00:35:19;;;;;;;3.27;0.60;;;;;;;6.11;100.00;101805.53;5054442;28;20480;-64
2020/12/18 00:37:45;;;;;;;0.60;0.60;;;;;;;6.10;100.00;101808.44;5054443;28;20446;-65
2020/12/18 00:40:12;;;;;;;0.70;0.50;;;;;;;6.04;100.00;101810.22;5054604;28;20449;-65
2020/12/18 00:42:38;;;;;;;0.97;0.60;;;;;;;5.97;100.00;101810.34;5054267;28;20490;-64
2020/12/18 00:45:04;;;;;;;1.37;0.90;;;;;;;5.90;100.00;101814.22;5053959;28;20465;-64
2020/12/18 00:47:31;;;;;;;1.10;1.00;;;;;;;5.88;100.00;101810.94;5054172;28;20989;-64
2020/12/18 00:49:57;;;;;;;1.30;1.20;;;;;;;5.88;100.00;101811.75;5054292;28;20476;-64
2020/12/18 00:52:25;;;;;;;2.33;0.63;;;;;;;5.86;100.00;101813.06;5053902;28;20485;-63
2020/12/18 00:54:51;;;;;;;0.63;0.63;;;;;;;5.89;100.00;101812.56;5053458;28;20497;-64
2020/12/18 00:57:17;;;;;;;0.80;0.43;;;;;;;5.85;100.00;101814.13;5054174;28;20470;-65
2020/12/18 00:59:43;;;;;;;2.30;0.57;;;;;;;5.79;100.00;101811.31;5053684;28;20959;-64
2020/12/18 01:02:09;;;;;;;5.33;2.40;;;;;;;5.81;100.00;101811.91;5054000;28;20518;-65
2020/12/18 01:04:36;;;;;;;1.80;0.97;;;;;;;5.77;100.00;101813.44;5053821;28;20869;-64
2020/12/18 01:07:03;;;;;;;1.03;0.60;;;;;;;5.75;100.00;101818.22;5053720;28;20453;-64
2020/12/18 01:09:29;;;;;;;1.23;0.60;;;;;;;5.70;100.00;101823.50;5053994;28;20454;-64
2020/12/18 01:11:56;;;;;;;0.43;0.33;;;;;;;5.65;100.00;101820.72;5053829;28;20489;-64
2020/12/18 01:14:22;;;;;;;1.43;1.00;;;;;;;5.64;100.00;101821.78;5053832;28;20470;-63
2020/12/18 01:16:52;;;;;;;0.40;0.30;;;;;;;5.61;100.00;101822.22;5053844;28;20447;-64
2020/12/18 01:19:19;;;;;;;4.10;1.47;;;;;;;5.67;100.00;101823.19;5054156;28;20438;-63
2020/12/18 01:21:46;;;;;;;0.80;0.67;;;;;;;5.70;100.00;101825.38;5053785;28;20480;-64
2020/12/18 01:24:13;;;;;;;0.80;0.67;;;;;;;5.70;100.00;101828.88;5053574;28;20481;-63
2020/12/18 01:26:39;;;;;;;0.50;0.40;;;;;;;5.66;100.00;101830.41;5053860;28;20449;-64
2020/12/18 01:29:06;;;;;;;1.00;1.00;;;;;;;5.73;100.00;101824.91;5053835;28;20447;-64
2020/12/18 01:31:33;;;;;;;1.80;0.50;;;;;;;5.76;100.00;101832.50;5053898;28;20504;-63
2020/12/18 01:33:59;;;;;;;1.20;1.20;;;;;;;5.72;100.00;101837.53;5053361;28;20474;-64
2020/12/18 01:36:25;;;;;;;3.20;1.13;;;;;;;5.75;100.00;101845.09;5053469;28;20442;-66
2020/12/18 01:38:52;;;;;;;0.60;0.40;;;;;;;5.75;100.00;101839.72;5053562;28;20797;-66
2020/12/18 01:41:19;;;;;;;0.60;0.60;;;;;;;5.76;100.00;101844.06;5053027;28;20434;-66
2020/12/18 01:43:45;;;;;;;0.40;0.40;;;;;;;5.79;100.00;101843.56;5053361;28;20493;-67
2020/12/18 01:46:13;;;;;;;0.80;0.60;;;;;;;5.83;100.00;101836.66;5052891;28;20885;-65
2020/12/18 01:48:40;;;;;;;0.50;0.47;;;;;;;5.87;100.00;101844.28;5053300;28;20496;-65
2020/12/18 01:51:09;;;;;;;0.40;0.30;;;;;;;5.88;100.00;101838.63;5053060;28;20571;-65
2020/12/18 01:53:35;;;;;;;0.97;0.70;;;;;;;5.87;100.00;101838.88;5053326;28;20434;-64
2020/12/18 01:56:03;;;;;;;1.03;0.80;;;;;;;5.88;100.00;101838.63;5053342;28;20473;-64
2020/12/18 01:58:32;;;;;;;1.40;0.40;;;;;;;5.86;100.00;101832.69;5052829;28;20951;-65
2020/12/18 02:01:02;;;;;;;0.80;0.67;;;;;;;5.81;100.00;101844.16;5053125;28;20818;-64
2020/12/18 02:03:28;;;;;;;0.60;0.60;;;;;;;5.83;100.00;101842.03;5052982;28;20504;-65
2020/12/18 02:05:56;;;;;;;3.13;1.03;;;;;;;5.77;100.00;101839.50;5053109;28;20494;-64
2020/12/18 02:08:25;;;;;;;0.40;0.30;;;;;;;5.79;100.00;101846.25;5052674;28;20438;-64
2020/12/18 02:10:51;;;;;;;1.30;1.30;;;;;;;5.79;100.00;101848.13;5052805;28;20453;-64
2020/12/18 02:13:19;;;;;;;1.70;1.40;;;;;;;5.83;100.00;101849.31;5053444;28;20438;-65
2020/12/18 02:15:49;;;;;;;1.27;1.17;;;;;;;5.86;100.00;101854.22;5052703;28;21032;-63
2020/12/18 02:18:15;;;;;;;1.67;1.03;;;;;;;5.83;100.00;101850.13;5052713;28;20434;-64
2020/12/18 02:20:41;;;;;;;2.50;1.50;;;;;;;5.88;100.00;101859.34;5052800;28;20514;-64
2020/12/18 02:23:07;;;;;;;0.77;0.50;;;;;;;5.93;100.00;101846.03;5052059;28;21029;-65
2020/12/18 02:25:38;;;;;;;2.10;0.70;;;;;;;5.92;100.00;101847.09;5052852;28;20500;-64
2020/12/18 02:28:05;;;;;;;2.53;1.00;;;;;;;5.87;100.00;101853.16;5052986;28;20841;-68
2020/12/18 02:30:31;;;;;;;1.53;0.70;;;;;;;5.78;100.00;101852.69;5052834;28;20446;-66
2020/12/18 02:32:58;;;;;;;0.57;0.40;;;;;;;5.81;100.00;101860.31;5052906;28;20446;-67
2020/12/18 02:35:24;;;;;;;1.63;1.53;;;;;;;5.82;100.00;101864.63;5052456;28;20476;-66
2020/12/18 02:37:53;;;;;;;0.40;0.37;;;;;;;5.85;100.00;101865.22;5053299;28;20474;-67
2020/12/18 02:40:19;;;;;;;0.40;0.37;;;;;;;5.83;100.00;101866.25;5052860;28;20449;-66
2020/12/18 02:42:45;;;;;;;0.77;0.70;;;;;;;5.84;100.00;101861.69;5052887;28;20486;-66
2020/12/18 02:45:12;;;;;;;1.90;1.53;;;;;;;5.87;100.00;101866.59;5052659;28;20537;-67
2020/12/18 02:47:38;;;;;;;1.77;0.80;;;;;;;5.85;100.00;101868.72;5052551;28;20935;-67
2020/12/18 02:50:05;;;;;;;1.40;0.80;;;;;;;5.85;100.00;101866.03;5052670;28;20442;-66
2020/12/18 02:52:31;;;;;;;1.03;0.93;;;;;;;5.88;100.00;101870.91;5052773;28;20469;-66
2020/12/18 02:54:57;;;;;;;0.70;0.50;;;;;;;5.94;100.00;101859.25;5052289;28;21064;-64
2020/12/18 02:57:23;;;;;;;1.37;1.30;;;;;;;5.92;100.00;101866.72;5056068;28;20442;-64
2020/12/18 02:59:49;;;;;;;0.50;0.50;;;;;;;5.92;100.00;101868.59;5055959;28;20484;-64
2020/12/18 03:02:16;;;;;;;1.93;0.90;;;;;;;5.93;100.00;101863.00;5055779;28;20477;-64
2020/12/18 03:04:42;;;;;;;3.57;1.33;;;;;;;5.94;100.00;101869.19;5055709;28;20527;-65
2020/12/18 03:07:08;;;;;;;1.13;0.83;;;;;;;5.95;100.00;101865.44;5056128;28;20821;-65
2020/12/18 03:09:35;;;;;;;0.50;0.40;;;;;;;5.95;100.00;101868.94;5056204;28;20523;-64
2020/12/18 03:12:01;;;;;;;2.30;1.37;;;;;;;5.96;100.00;101867.88;5056045;28;20442;-64
2020/12/18 03:14:27;;;;;;;1.53;0.87;;;;;;;5.95;100.00;101866.25;5056024;28;20461;-64
2020/12/18 03:16:53;;;;;;;2.57;1.40;;;;;;;5.92;100.00;101869.41;5056101;28;20477;-64
2020/12/18 03:19:20;;;;;;;1.07;1.00;;;;;;;5.93;100.00;101872.91;5055609;28;20438;-63
2020/12/18 03:21:47;;;;;;;0.67;0.67;;;;;;;5.93;100.00;101867.53;5056379;28;20473;-64
2020/12/18 03:24:13;;;;;;;1.70;1.60;;;;;;;5.94;100.00;101871.88;5055651;28;20541;-64
2020/12/18 03:26:39;;;;;;;0.60;0.57;;;;;;;5.89;100.00;101858.28;5055799;28;20445;-64
2020/12/18 03:29:05;;;;;;;0.57;0.37;;;;;;;5.88;100.00;101859.34;5055696;28;20944;-64
2020/12/18 03:31:32;;;;;;;1.00;0.97;;;;;;;5.87;100.00;101861.22;5055701;28;20874;-64
2020/12/18 03:33:58;;;;;;;0.70;0.70;;;;;;;5.79;100.00;101862.41;5055612;28;20473;-64
2020/12/18 03:36:25;;;;;;;1.10;0.70;;;;;;;5.66;100.00;101865.34;5055856;28;20446;-64
2020/12/18 03:38:51;;;;;;;7.80;2.53;;;;;;;5.64;100.00;101870.16;5055582;28;20476;-64
2020/12/18 03:41:18;;;;;;;1.03;1.00;;;;;;;5.61;100.00;101864.41;5055467;28;20476;-67
2020/12/18 03:43:44;;;;;;;1.00;0.50;;;;;;;5.50;100.00;101864.22;5055113;28;20524;-64
2020/12/18 03:46:14;;;;;;;1.27;0.60;;;;;;;5.49;100.00;101861.75;5055567;28;20501;-65
2020/12/18 03:48:40;;;;;;;0.50;0.40;;;;;;;5.43;100.00;101874.25;5055418;28;20450;-64
2020/12/18 03:51:06;;;;;;;0.60;0.50;;;;;;;5.41;100.00;101870.19;5055624;28;20485;-65
2020/12/18 03:53:33;;;;;;;0.80;0.77;;;;;;;5.34;100.00;101864.09;5055425;28;20438;-65
2020/12/18 03:55:59;;;;;;;2.30;0.80;;;;;;;5.36;100.00;101867.34;5055248;28;20462;-62
2020/12/18 03:58:25;;;;;;;0.80;0.70;;;;;;;5.36;100.00;101862.81;5054966;28;20958;-65
2020/12/18 04:00:52;;;;;;;2.70;1.00;;;;;;;5.35;100.00;101868.41;5055419;28;20463;-64
2020/12/18 04:03:18;;;;;;;2.97;0.73;;;;;;;5.35;100.00;101863.03;5054671;28;21069;-64
2020/12/18 04:05:44;;;;;;;0.87;0.87;;;;;;;5.35;100.00;101869.22;5055001;28;20497;-64
2020/12/18 04:08:10;;;;;;;1.13;0.70;;;;;;;5.34;100.00;101872.97;5054580;28;20454;-64
2020/12/18 04:10:37;;;;;;;0.80;0.80;;;;;;;5.39;100.00;101873.09;5054938;28;20442;-64
2020/12/18 04:13:03;;;;;;;0.63;0.63;;;;;;;5.36;100.00;101881.63;5054982;28;20492;-61
2020/12/18 04:15:30;;;;;;;3.70;0.97;;;;;;;5.39;100.00;101877.66;5054894;28;20466;-65
2020/12/18 04:17:56;;;;;;;1.53;0.97;;;;;;;5.29;100.00;101879.03;5054670;28;21013;-64
2020/12/18 04:20:22;;;;;;;1.30;0.97;;;;;;;5.38;100.00;101876.00;5054756;28;20472;-65
2020/12/18 04:22:48;;;;;;;0.87;0.87;;;;;;;5.48;100.00;101886.97;5054781;28;20531;-65
2020/12/18 04:25:14;;;;;;;1.70;1.60;;;;;;;5.49;100.00;101891.31;5054648;28;20551;-66
2020/12/18 04:27:41;;;;;;;0.50;0.50;;;;;;;5.53;100.00;101889.78;5054490;28;21001;-65
2020/12/18 04:30:07;;;;;;;0.63;0.53;;;;;;;5.54;100.00;101891.44;5054555;28;20450;-66
2020/12/18 04:32:34;;;;;;;0.60;0.50;;;;;;;5.51;100.00;101887.34;5054512;28;20516;-65
2020/12/18 04:35:00;;;;;;;1.20;1.10;;;;;;;5.52;100.00;101885.47;5054288;28;20462;-65
2020/12/18 04:37:26;;;;;;;0.70;0.60;;;;;;;5.56;100.00;101883.94;5054484;28;20450;-65
2020/12/18 04:39:52;;;;;;;3.27;1.57;;;;;;;5.59;100.00;101896.09;5054649;28;20454;-65
2020/12/18 04:42:19;;;;;;;0.60;0.57;;;;;;;5.61;100.00;101894.81;5054175;28;20485;-65
2020/12/18 04:44:46;;;;;;;0.47;0.40;;;;;;;5.68;100.00;101892.00;5054191;28;20846;-65
2020/12/18 04:47:14;;;;;;;1.90;1.80;;;;;;;5.64;100.00;101891.66;5053902;28;20927;-66
2020/12/18 04:49:42;;;;;;;0.40;0.30;;;;;;;5.70;100.00;101889.88;5053883;28;20450;-65
2020/12/18 04:52:10;;;;;;;0.60;0.47;;;;;;;5.79;100.00;101897.34;5054111;28;20442;-65
2020/12/18 04:54:40;;;;;;;0.40;0.30;;;;;;;5.82;100.00;101899.56;5053994;28;20466;-65
2020/12/18 04:57:07;;;;;;;2.20;0.83;;;;;;;5.88;100.00;101897.78;5053127;28;20464;-66
2020/12/18 04:59:34;;;;;;;1.43;1.37;;;;;;;5.91;100.00;101896.50;5054001;28;20444;-65
2020/12/18 05:02:01;;;;;;;0.73;0.73;;;;;;;5.93;100.00;101894.44;5053514;28;20943;-65
2020/12/18 05:04:28;;;;;;;0.70;0.70;;;;;;;5.92;100.00;101892.81;5053820;28;20497;-65
2020/12/18 05:06:54;;;;;;;1.03;0.60;;;;;;;5.94;100.00;101890.72;5053875;28;20449;-64
2020/12/18 05:09:23;;;;;;;0.73;0.60;;;;;;;6.01;100.00;101902.13;5053770;28;20474;-64
2020/12/18 05:11:51;;;;;;;3.53;2.73;;;;;;;6.07;100.00;101893.94;5053713;28;20516;-65
2020/12/18 05:14:17;;;;;;;1.57;1.13;;;;;;;6.12;100.00;101885.16;5053892;28;20466;-65
2020/12/18 05:16:46;;;;;;;4.20;2.87;;;;;;;6.14;100.00;101885.72;5053703;28;20446;-65
2020/12/18 05:19:13;;;;;;;0.50;0.40;;;;;;;6.18;100.00;101894.94;5052723;28;20466;-66
2020/12/18 05:21:40;;;;;;;1.30;1.20;;;;;;;6.22;100.00;101893.41;5053213;28;20489;-65
2020/12/18 05:24:06;;;;;;;1.67;0.80;;;;;;;6.22;100.00;101901.50;5053392;28;20928;-66
2020/12/18 05:26:33;;;;;;;2.03;1.90;;;;;;;6.28;100.00;101908.59;5053135;28;20445;-66
2020/12/18 05:29:05;;;;;;;0.50;0.50;;;;;;;6.28;100.00;101903.22;5053280;28;20482;-66
2020/12/18 05:31:32;;;;;;;8.70;3.23;;;;;;;6.31;100.00;101905.44;5053130;28;20485;-66
2020/12/18 05:34:00;;;;;;;0.77;0.73;;;;;;;6.35;100.00;101900.38;5053394;28;20464;-65
2020/12/18 05:36:28;;;;;;;0.73;0.73;;;;;;;6.38;100.00;101909.88;5053387;28;20809;-65
2020/12/18 05:38:54;;;;;;;0.60;0.60;;;;;;;6.41;100.00;101909.38;5053362;28;20437;-65
2020/12/18 05:41:22;;;;;;;1.20;1.03;;;;;;;6.39;100.00;101911.50;5053643;28;20465;-65
2020/12/18 05:43:49;;;;;;;1.73;1.60;;;;;;;6.36;100.00;101912.78;5053171;28;20539;-64
2020/12/18 05:46:24;;;;;;;2.40;2.10;;;;;;;6.34;100.00;101906.03;5053668;28;20442;-65
2020/12/18 05:48:58;;;;;;;2.63;1.57;;;;;;;6.35;100.00;101907.66;5053295;28;20422;-65
2020/12/18 05:51:33;;;;;;;2.10;1.50;;;;;;;6.32;100.00;101915.13;5053313;28;20465;-65
2020/12/18 05:54:11;;;;;;;1.17;1.17;;;;;;;6.32;100.00;101915.13;5053371;28;20422;-65
2020/12/18 05:56:39;;;;;;;2.10;1.03;;;;;;;6.29;100.00;101915.63;5052903;28;20453;-65
2020/12/18 05:59:06;;;;;;;0.63;0.40;;;;;;;6.24;100.00;101915.53;5053217;28;20480;-65
2020/12/18 06:01:33;;;;;;;1.00;0.97;;;;;;;6.22;100.00;101920.31;5053331;28;20499;-66
2020/12/18 06:04:03;;;;;;;0.57;0.40;;;;;;;6.20;100.00;101932.41;5053089;28;20486;-65
2020/12/18 06:06:35;;;;;;;2.43;2.17;;;;;;;6.21;100.00;101926.75;5053128;28;20434;-65
2020/12/18 06:09:02;;;;;;;1.83;1.73;;;;;;;6.30;100.00;101925.31;5052954;28;20422;-66
2020/12/18 06:11:31;;;;;;;2.70;1.37;;;;;;;6.25;100.00;101929.81;5053774;28;20447;-64
2020/12/18 06:13:59;;;;;;;0.67;0.57;;;;;;;6.24;100.00;101928.97;5053549;28;20462;-64
2020/12/18 06:16:28;;;;;;;0.60;0.50;;;;;;;6.19;100.00;101934.25;5053641;28;20474;-65
2020/12/18 06:19:03;;;;;;;1.10;1.10;;;;;;;6.17;100.00;101930.97;5053059;28;20473;-64
2020/12/18 06:21:30;;;;;;;2.10;0.67;;;;;;;6.15;100.00;101924.19;5053243;28;20503;-64
2020/12/18 06:23:57;;;;;;;2.20;1.43;;;;;;;6.03;100.00;101927.75;5054012;28;20542;-63
2020/12/18 06:26:24;;;;;;;0.90;0.70;;;;;;;6.06;100.00;101931.81;5054199;28;20434;-63
2020/12/18 06:28:51;;;;;;;0.90;0.50;;;;;;;6.01;100.00;101929.03;5054253;28;20477;-63
2020/12/18 06:31:25;;;;;;;0.50;0.40;;;;;;;5.93;100.00;101924.84;5055321;28;20462;-63
2020/12/18 06:33:55;;;;;;;0.83;0.83;;;;;;;5.89;100.00;101925.50;5058065;28;20442;-62
2020/12/18 06:37:00;;;;;;;10.40;2.60;;;;;;;5.85;100.00;101929.75;5058406;28;20450;-63
2020/12/18 06:39:29;;;;;;;0.93;0.63;;;;;;;5.79;100.00;101932.28;5054580;28;20458;-63
2020/12/18 06:42:16;;;;;;;0.50;0.40;;;;;;;5.68;100.00;101935.00;5058385;28;20453;-63
2020/12/18 06:44:45;;;;;;;0.80;0.80;;;;;;;5.57;100.00;101933.94;5058220;28;20488;-62
2020/12/18 06:47:16;;;;;;;1.33;1.27;;;;;;;5.57;100.00;101925.88;5057710;28;20517;-63
2020/12/18 06:50:07;;;;;;;0.70;0.70;;;;;;;5.50;100.00;101935.94;5057522;28;20426;-64
2020/12/18 06:52:47;;;;;;;0.50;0.50;;;;;;;5.42;100.00;101936.28;5057993;28;20414;-64
2020/12/18 06:55:16;;;;;;;9.83;1.60;;;;;;;5.37;100.00;101938.88;5058173;28;20469;-64
2020/12/18 06:57:43;;;;;;;4.23;1.23;;;;;;;5.30;100.00;101930.91;5058861;28;20442;-63
2020/12/18 07:00:29;;;;;;;3.10;0.80;;;;;;;5.24;100.00;101929.97;5060018;28;20442;-63
2020/12/18 07:02:56;;;;;;;2.40;0.73;;;;;;;5.17;100.00;101929.25;5058050;28;20478;-65
2020/12/18 07:05:34;;;;;;;0.50;0.50;;;;;;;5.14;100.00;101928.91;5059240;28;20470;-66
2020/12/18 07:08:02;;;;;;;4.43;2.87;;;;;;;5.09;100.00;101926.94;5056632;28;20875;-65
2020/12/18 07:10:31;;;;;;;2.20;1.13;;;;;;;5.08;100.00;101930.63;5055705;28;20453;-64
2020/12/18 07:12:58;;;;;;;0.50;0.43;;;;;;;4.98;100.00;101925.03;5055905;28;20544;-64
2020/12/18 07:15:46;;;;;;;1.00;1.00;;;;;;;4.93;100.00;101927.59;5055556;28;20470;-65
2020/12/18 07:18:14;;;;;;;0.40;0.30;;;;;;;4.90;100.00;101928.03;5055773;28;20469;-66
2020/12/18 07:20:45;;;;;;;2.97;0.97;;;;;;;4.89;100.00;101918.34;5055680;28;20965;-66
2020/12/18 07:23:11;;;;;;;0.67;0.53;;;;;;;4.88;100.00;101940.88;5055608;28;20498;-67
2020/12/18 07:25:38;;;;;;;4.63;1.63;;;;;;;4.88;100.00;101935.50;5055663;28;20469;-66
2020/12/18 07:28:05;;;;;;;0.77;0.53;;;;;;;4.88;100.00;101925.59;5055434;28;20869;-68
2020/12/18 07:30:32;;;;;;;0.40;0.40;;;;;;;4.83;100.00;101932.72;5047407;28;20455;-64
2020/12/18 07:32:59;;;;;;;1.60;0.87;;;;;;;4.86;100.00;101935.72;5022589;28;20439;-65
2020/12/18 07:35:27;;;;;;;1.53;1.40;;;;;;;4.76;100.00;101941.66;5020964;28;20464;-63
2020/12/18 07:37:53;;;;;;;1.50;1.40;;;;;;;4.86;100.00;101938.41;5016142;28;20447;-62
2020/12/18 07:40:19;;;;;;;1.50;0.80;;;;;;;4.87;100.00;101939.22;5015692;28;20535;-65
2020/12/18 07:42:46;;;;;;;0.50;0.50;;;;;;;4.91;100.00;101935.03;5014256;28;20479;-65
2020/12/18 07:45:13;;;;;;;2.07;1.50;;;;;;;4.90;100.00;101938.78;5015528;28;20837;-65
2020/12/18 07:47:40;;;;;;;2.23;2.13;;;;;;;4.87;100.00;101941.91;5015614;28;20444;-65
2020/12/18 07:50:09;;;;;;;0.50;0.43;;;;;;;4.86;100.00;101930.34;5015540;28;20498;-65
2020/12/18 07:52:36;;;;;;;0.40;0.30;;;;;;;4.90;100.00;101931.53;5015860;28;20476;-65
2020/12/18 07:55:03;;;;;;;1.77;1.20;;;;;;;4.88;100.00;101932.84;5015198;28;20985;-65
2020/12/18 07:57:29;;;;;;;0.60;0.50;;;;;;;4.86;100.00;101932.22;5015729;28;20471;-65
2020/12/18 08:00:07;;;;;;;3.33;0.63;;;;;;;4.94;100.00;101935.41;5015436;28;20440;-65
2020/12/18 08:02:33;;;;;;;0.40;0.30;;;;;;;5.03;100.00;101938.56;5015355;28;20432;-66
2020/12/18 08:05:01;;;;;;;1.77;1.63;;;;;;;5.07;100.00;101939.75;5015001;28;20498;-66
2020/12/18 08:07:29;;;;;;;1.47;1.37;;;;;;;5.10;100.00;101939.28;5015299;28;21029;-66
2020/12/18 08:10:00;;;;;;;4.43;2.33;;;;;;;5.16;100.00;101942.91;5015028;28;20945;-65
2020/12/18 08:12:29;;;;;;;0.60;0.60;;;;;;;5.22;100.00;101953.56;5015157;28;20480;-66
2020/12/18 08:15:12;;;;;;;1.67;1.47;;;;;;;5.29;100.00;101950.75;5015114;28;20459;-65
2020/12/18 08:17:39;;;;;;;1.27;0.57;;;;;;;5.32;100.00;101953.81;5014738;28;20514;-65
2020/12/18 08:20:08;;;;;;;1.43;0.90;;;;;;;5.42;100.00;101952.41;5014656;28;20482;-64
2020/12/18 08:22:39;;;;;;;3.10;2.47;;;;;;;5.43;100.00;101959.41;5014914;28;20510;-64
2020/12/18 08:25:08;;;;;;;0.50;0.50;;;;;;;5.50;100.00;101954.75;5014931;28;20816;-65
2020/12/18 08:27:39;;;;;;;0.63;0.63;;;;;;;5.55;100.00;101957.56;5014991;28;20448;-65
2020/12/18 08:30:07;;;;;;;3.40;2.13;;;;;;;5.56;100.00;101964.56;5014944;28;20452;-65
2020/12/18 08:32:40;;;;;;;6.10;1.60;;;;;;;5.55;100.00;101960.25;5014818;28;20444;-66
2020/12/18 08:35:08;;;;;;;0.80;0.80;;;;;;;5.58;100.00;101970.53;5014433;28;20562;-65
2020/12/18 08:37:35;;;;;;;1.33;0.87;;;;;;;5.61;100.00;101967.38;5014726;28;20451;-65
2020/12/18 08:40:02;;;;;;;1.13;1.03;;;;;;;5.66;100.00;101964.78;5014272;28;20934;-65
2020/12/18 08:42:29;;;;;;;0.50;0.40;;;;;;;5.71;100.00;101967.63;5014208;28;20995;-66
2020/12/18 08:44:59;;;;;;;2.70;0.87;;;;;;;5.72;100.00;101973.81;5014239;28;20998;-65
2020/12/18 08:47:27;;;;;;;0.53;0.50;;;;;;;5.68;100.00;101970.78;5014238;28;20961;-66
2020/12/18 08:49:55;;;;;;;1.00;1.00;;;;;;;5.73;100.00;101972.75;5014521;28;20494;-65
2020/12/18 08:52:23;;;;;;;2.90;1.30;;;;;;;5.77;100.00;101966.69;5014133;28;20987;-65
2020/12/18 08:55:00;;;;;;;2.40;1.87;;;;;;;5.77;100.00;101969.38;5014148;28;20537;-65
2020/12/18 08:57:28;;;;;;;2.90;1.57;;;;;;;5.80;100.00;101966.22;5014143;28;20878;-65
2020/12/18 09:00:10;;;;;;;0.70;0.70;;;;;;;5.86;100.00;101977.06;5014296;28;20456;-65
2020/12/18 09:02:39;;;;;;;0.93;0.90;;;;;;;5.88;100.00;101973.09;5039153;22;20491;-71
2020/12/18 09:05:18;;;;;;;4.00;0.87;;;;;;;5.93;100.00;101975.09;5014085;28;20800;-73
2020/12/18 09:07:52;;;;;;;1.33;0.73;;;;;;;5.97;100.00;101969.00;5013843;28;20527;-73
2020/12/18 09:10:37;;;;;;;2.83;1.10;;;;;;;6.04;100.00;101975.09;5013551;28;20508;-73
2020/12/18 09:13:12;;;;;;;1.17;1.10;;;;;;;6.05;100.00;101965.16;5014065;28;20829;-73
2020/12/18 09:15:39;;;;;;;16.30;1.30;;;;;;;6.07;100.00;101968.44;5013374;28;20502;-73
2020/12/18 09:18:06;;;;;;;9.17;1.70;;;;;;;6.06;100.00;101974.84;5013853;28;20475;-73
2020/12/18 09:20:36;;;;;;;3.23;1.30;;;;;;;6.10;100.00;101973.31;5013569;28;20452;-73
2020/12/18 09:23:04;;;;;;;1.27;0.73;;;;;;;6.13;100.00;101969.34;5013445;28;20538;-73
2020/12/18 09:25:36;;;;;;;1.60;0.80;;;;;;;6.18;100.00;101975.66;5013593;28;20440;-73
2020/12/18 09:28:02;;;;;;;1.17;0.60;;;;;;;6.19;100.00;101976.47;5013840;28;20436;-73
2020/12/18 09:30:30;;;;;;;0.80;0.80;;;;;;;6.22;100.00;101974.13;5013767;28;20443;-73
2020/12/18 09:33:26;;;;;;;2.00;0.90;;;;;;;6.24;100.00;101971.19;5013431;28;20492;-73
2020/12/18 09:35:55;;;;;;;1.07;0.73;;;;;;;6.23;100.00;101973.06;5013500;28;20436;-73
2020/12/18 09:38:23;;;;;;;3.60;3.30;;;;;;;6.18;100.00;101972.97;5013627;28;20812;-73
2020/12/18 09:40:50;;;;;;;1.63;1.20;;;;;;;6.18;100.00;101967.59;5013644;28;20452;-73
2020/12/18 09:43:16;;;;;;;1.27;1.17;;;;;;;6.24;100.00;101961.28;5013396;28;20522;-73
2020/12/18 09:45:42;;;;;;;1.50;1.03;;;;;;;6.23;100.00;101969.56;5013285;28;20468;-73
2020/12/18 09:48:08;;;;;;;0.60;0.60;;;;;;;6.24;100.00;101969.34;5013501;28;20439;-73
2020/12/18 09:50:35;;;;;;;0.40;0.40;;;;;;;6.25;100.00;101960.22;5013236;28;20957;-73
2020/12/18 09:53:02;;;;;;;0.80;0.67;;;;;;;6.30;100.00;101971.06;5013410;28;20503;-73
2020/12/18 09:55:28;;;;;;;1.87;1.77;;;;;;;6.33;100.00;101969.78;5013487;28;20475;-73
2020/12/18 09:57:54;;;;;;;2.47;1.90;;;;;;;6.31;100.00;101967.31;5013491;28;20506;-73
2020/12/18 10:00:20;;;;;;;0.40;0.40;;;;;;;6.35;100.00;101967.66;5013453;28;20483;-74
2020/12/18 10:02:46;;;;;;;0.90;0.60;;;;;;;6.39;100.00;101965.31;5012979;28;20475;-70
2020/12/18 10:05:13;;;;;;;3.13;1.03;;;;;;;6.45;100.00;101962.47;5013231;28;20902;-71
2020/12/18 10:07:39;;;;;;;1.67;1.40;;;;;;;6.51;100.00;101966.91;5017507;28;20444;-73
2020/12/18 10:10:06;;;;;;;2.00;0.77;;;;;;;6.61;100.00;101960.09;5017216;28;20523;-70
2020/12/18 10:12:32;;;;;;;0.70;0.40;;;;;;;6.68;100.00;101953.47;5017292;28;20495;-72
2020/12/18 10:14:58;;;;;;;2.50;1.00;;;;;;;6.74;100.00;101957.09;5017359;28;20443;-73
2020/12/18 10:17:24;;;;;;;0.73;0.73;;;;;;;6.77;100.00;101948.53;5017012;28;20960;-73
2020/12/18 10:19:51;;;;;;;0.87;0.80;;;;;;;6.81;100.00;101945.09;5016910;28;20459;-73
2020/12/18 10:22:17;;;;;;;1.33;0.80;;;;;;;6.85;99.86;101942.75;5017108;28;20447;-73
2020/12/18 10:24:44;;;;;;;2.80;0.80;;;;;;;6.83;99.18;101947.56;5016714;28;20514;-73
2020/12/18 10:27:11;;;;;;;3.70;1.30;;;;;;;6.88;98.48;101939.59;5016968;28;20514;-73
2020/12/18 10:29:37;;;;;;;0.83;0.77;;;;;;;6.95;98.73;101939.41;5017129;28;20486;-73
2020/12/18 10:32:03;;;;;;;1.90;0.87;;;;;;;7.02;99.03;101938.22;5017080;28;20471;-73
2020/12/18 10:34:29;;;;;;;1.60;1.50;;;;;;;7.10;98.94;101945.06;5016631;28;21027;-72
2020/12/18 10:36:56;;;;;;;5.37;1.43;;;;;;;7.18;98.73;101941.16;5016993;28;20879;-73
2020/12/18 10:39:23;;;;;;;3.07;1.20;;;;;;;7.22;98.44;101939.63;5016943;28;20447;-72
2020/12/18 10:41:50;;;;;;;1.50;1.40;;;;;;;7.31;98.15;101944.34;5016916;28;20501;-73
2020/12/18 10:44:17;;;;;;;4.83;1.87;;;;;;;7.41;97.27;101948.28;5016661;28;20902;-72
2020/12/18 10:46:44;;;;;;;5.00;1.60;;;;;;;7.46;96.94;101937.56;5016588;28;20967;-73
2020/12/18 10:49:11;;;;;;;2.33;1.07;;;;;;;7.52;96.67;101941.97;5016439;28;20452;-73
2020/12/18 10:51:41;;;;;;;1.00;1.00;;;;;;;7.61;96.70;101943.16;5017069;28;20914;-72
2020/12/18 10:54:07;;;;;;;6.83;1.73;;;;;;;7.67;95.70;101939.50;5016690;28;20488;-72
2020/12/18 10:56:39;;;;;;;2.63;1.27;;;;;;;7.75;95.58;101939.09;5016689;28;20490;-71
2020/12/18 10:59:05;;;;;;;2.53;1.27;;;;;;;7.84;95.47;101937.59;5016627;28;20459;-71
2020/12/18 11:01:32;;;;;;;1.17;0.53;;;;;;;7.94;95.45;101936.91;5016504;28;20472;-71
2020/12/18 11:03:58;;;;;;;11.43;3.53;;;;;;;8.01;95.41;101936.69;5016072;28;20528;-71
2020/12/18 11:06:24;;;;;;;2.20;1.03;;;;;;;8.04;95.17;101938.91;5016353;28;20534;-71
2020/12/18 11:08:50;;;;;;;2.10;1.27;;;;;;;8.12;94.95;101941.16;5016404;28;20478;-71
2020/12/18 11:11:17;;;;;;;1.20;1.10;;;;;;;8.10;94.23;101940.59;5006522;28;20488;-71
2020/12/18 11:13:43;;;;;;;3.23;1.00;;;;;;;8.16;94.67;101939.59;4995799;28;20501;-68
2020/12/18 11:16:09;;;;;;;0.83;0.83;;;;;;;8.32;94.47;101932.50;4996169;28;20480;-71
2020/12/18 11:18:36;;;;;;;1.30;1.20;;;;;;;8.44;93.93;101937.78;4996325;28;20946;-69
2020/12/18 11:21:03;;;;;;;0.60;0.40;;;;;;;8.54;92.93;101941.44;4996200;28;20508;-68
2020/12/18 11:23:30;;;;;;;1.23;0.97;;;;;;;8.72;92.17;101936.72;4995452;28;20496;-69
2020/12/18 11:25:56;;;;;;;1.73;1.63;;;;;;;8.83;91.49;101942.00;4995681;28;20449;-68
2020/12/18 11:28:22;;;;;;;5.83;2.37;;;;;;;8.95;90.67;101941.84;4995703;28;20452;-69
2020/12/18 11:30:49;;;;;;;1.10;1.00;;;;;;;9.05;90.04;101941.91;4996390;28;20444;-68